createdAt,value
2019-06-07T00:00:39.361Z,16.50
2019-06-07T00:03:03.049Z,16.50
2019-06-07T00:05:32.236Z,16.50
2019-06-07T00:08:07.612Z,16.50
2019-06-07T00:10:37.131Z,16.50
2019-06-07T00:13:06.885Z,16.40
2019-06-07T00:15:36.238Z,16.40
2019-06-07T00:18:05.451Z,16.40
2019-06-07T00:20:34.659Z,16.40
2019-06-07T00:23:03.745Z,16.30
2019-06-07T00:25:32.917Z,16.30
2019-06-07T00:28:02.017Z,16.30
2019-06-07T00:30:44.735Z,16.30
2019-06-07T00:33:02.011Z,16.20
2019-06-07T00:35:31.214Z,16.30
2019-06-07T00:38:00.377Z,16.30
2019-06-07T00:40:32.038Z,16.20
2019-06-07T00:43:00.499Z,16.20
2019-06-07T00:45:29.722Z,16.10
2019-06-07T00:48:00.007Z,16.10
2019-06-07T00:50:29.163Z,16.20
2019-06-07T00:53:14.699Z,16.10
2019-06-07T00:55:29.185Z,16.10
2019-06-07T00:57:58.317Z,16.00
2019-06-07T01:00:27.761Z,16.00
2019-06-07T01:02:59.966Z,16.10
2019-06-07T01:05:31.519Z,16.10
2019-06-07T01:08:00.193Z,16.10
2019-06-07T01:10:52.214Z,16.10
2019-06-07T01:13:00.206Z,16.10
2019-06-07T01:15:29.508Z,16.10
2019-06-07T01:20:29.491Z,16.10
2019-06-07T01:22:58.745Z,16.10
2019-06-07T01:25:28.941Z,16.00
2019-06-07T01:27:58.593Z,16.00
2019-06-07T01:30:29.572Z,16.00
2019-06-07T01:32:59.228Z,16.00
2019-06-07T01:35:29.805Z,16.00
2019-06-07T01:38:02.295Z,16.00
2019-06-07T01:40:32.992Z,16.00
2019-06-07T01:43:02.266Z,15.90
2019-06-07T01:45:31.446Z,15.90
2019-06-07T01:48:00.565Z,15.90
2019-06-07T01:50:29.897Z,15.90
2019-06-07T01:52:58.985Z,15.80
2019-06-07T01:55:32.353Z,15.80
2019-06-07T01:57:58.997Z,15.80
2019-06-07T02:00:32.303Z,15.90
2019-06-07T02:02:59.934Z,15.90
2019-06-07T02:05:30.922Z,15.90
2019-06-07T02:07:59.959Z,15.90
2019-06-07T02:10:33.185Z,15.80
2019-06-07T02:13:00.046Z,15.80
2019-06-07T02:15:36.134Z,15.80
2019-06-07T02:18:00.505Z,15.80
2019-06-07T02:20:31.873Z,15.80
2019-06-07T02:23:02.807Z,15.80
2019-06-07T02:25:43.928Z,15.80
2019-06-07T02:28:26.561Z,15.80
2019-06-07T02:30:44.647Z,15.80
2019-06-07T02:33:05.657Z,15.70
2019-06-07T02:35:40.225Z,15.70
2019-06-07T02:38:05.658Z,15.70
2019-06-07T02:40:37.399Z,15.60
2019-06-07T02:43:05.641Z,15.60
2019-06-07T02:45:42.211Z,15.60
2019-06-07T02:48:05.626Z,15.60
2019-06-07T02:50:37.988Z,15.60
2019-06-07T02:53:05.583Z,15.60
2019-06-07T02:56:26.538Z,15.60
2019-06-07T02:58:05.577Z,15.50
2019-06-07T03:01:08.568Z,15.50
2019-06-07T03:03:24.626Z,15.50
2019-06-07T03:05:54.049Z,15.50
2019-06-07T03:08:23.141Z,15.50
2019-06-07T03:10:52.804Z,15.50
2019-06-07T03:13:22.012Z,15.50
2019-06-07T03:15:52.214Z,15.50
2019-06-07T03:18:41.462Z,15.50
2019-06-07T03:21:14.122Z,15.50
2019-06-07T03:23:43.232Z,15.50
2019-06-07T03:26:12.405Z,15.50
2019-06-07T03:28:41.569Z,15.40
2019-06-07T03:31:10.746Z,15.40
2019-06-07T03:33:42.881Z,15.40
2019-06-07T03:36:23.234Z,15.50
2019-06-07T03:38:41.538Z,15.50
2019-06-07T03:41:10.697Z,15.50
2019-06-07T03:43:40.724Z,15.50
2019-06-07T03:46:10.257Z,15.50
2019-06-07T03:48:41.380Z,15.40
2019-06-07T03:51:24.236Z,15.40
2019-06-07T03:53:41.084Z,15.40
2019-06-07T03:56:10.863Z,15.40
2019-06-07T03:58:49.254Z,15.40
2019-06-07T04:01:11.877Z,15.40
2019-06-07T04:03:50.748Z,15.30
2019-06-07T04:06:11.875Z,15.30
2019-06-07T04:08:42.122Z,15.30
2019-06-07T04:11:11.805Z,15.20
2019-06-07T04:13:42.753Z,15.20
2019-06-07T04:16:11.914Z,15.10
2019-06-07T04:18:42.516Z,15.00
2019-06-07T04:21:11.877Z,15.00
2019-06-07T04:23:45.530Z,15.00
2019-06-07T04:26:11.859Z,15.00
2019-06-07T04:29:30.816Z,14.90
2019-06-07T04:31:11.858Z,14.90
2019-06-07T04:33:43.549Z,14.90
2019-06-07T04:36:11.894Z,14.80
2019-06-07T04:38:42.619Z,14.90
2019-06-07T04:41:12.099Z,14.80
2019-06-07T04:43:42.843Z,14.80
2019-06-07T04:46:12.929Z,14.80
2019-06-07T04:48:43.594Z,14.80
2019-06-07T04:51:14.686Z,14.80
2019-06-07T04:53:44.075Z,14.80
2019-06-07T04:56:13.235Z,14.80
2019-06-07T04:58:43.159Z,14.80
2019-06-07T05:01:26.917Z,14.70
2019-06-07T05:03:44.250Z,14.70
2019-06-07T05:06:14.224Z,14.60
2019-06-07T05:08:43.955Z,14.60
2019-06-07T05:11:13.328Z,14.60
2019-06-07T05:13:44.002Z,14.60
2019-06-07T05:16:13.462Z,14.50
2019-06-07T05:18:43.278Z,14.60
2019-06-07T05:21:12.829Z,14.60
2019-06-07T05:24:05.270Z,14.60
2019-06-07T05:26:12.828Z,14.70
2019-06-07T05:28:43.027Z,14.70
2019-06-07T05:31:12.909Z,14.70
2019-06-07T05:33:43.522Z,14.80
2019-06-07T05:36:12.890Z,14.70
2019-06-07T05:38:44.713Z,14.80
2019-06-07T05:41:12.935Z,14.70
2019-06-07T05:44:12.018Z,14.70
2019-06-07T05:46:33.919Z,14.70
2019-06-07T05:49:03.005Z,14.70
2019-06-07T05:51:32.294Z,14.80
2019-06-07T05:54:01.457Z,14.90
2019-06-07T05:56:30.645Z,14.90
2019-06-07T05:58:59.810Z,14.90
2019-06-07T06:01:53.476Z,14.90
2019-06-07T06:03:59.810Z,14.90
2019-06-07T06:06:28.977Z,14.80
2019-06-07T06:09:13.224Z,14.80
2019-06-07T06:11:43.356Z,14.70
2019-06-07T06:14:07.571Z,14.70
2019-06-07T06:16:30.601Z,14.60
2019-06-07T06:18:59.765Z,14.60
2019-06-07T06:21:28.933Z,14.60
2019-06-07T06:23:58.217Z,14.70
2019-06-07T06:26:27.391Z,14.80
2019-06-07T06:28:56.553Z,14.80
2019-06-07T06:31:25.738Z,14.80
2019-06-07T06:33:54.909Z,14.80
2019-06-07T06:36:24.112Z,14.90
2019-06-07T06:38:53.277Z,15.00
2019-06-07T06:41:22.442Z,15.00
2019-06-07T06:43:52.718Z,15.00
2019-06-07T06:46:37.970Z,15.00
2019-06-07T06:48:55.313Z,14.90
2019-06-07T06:51:23.843Z,14.90
2019-06-07T06:53:53.016Z,14.80
2019-06-07T06:56:26.477Z,14.80
2019-06-07T07:01:26.474Z,14.80
2019-06-07T07:04:10.495Z,14.80
2019-06-07T07:06:28.626Z,14.90
2019-06-07T07:08:58.186Z,14.90
2019-06-07T07:11:27.346Z,14.90
2019-06-07T07:13:57.217Z,15.00
2019-06-07T07:16:26.496Z,15.00
2019-06-07T07:18:55.669Z,15.10
2019-06-07T07:21:24.857Z,15.10
2019-06-07T07:24:19.416Z,15.30
2019-06-07T07:26:32.333Z,15.30
2019-06-07T07:29:01.482Z,15.40
2019-06-07T07:31:32.947Z,15.50
2019-06-07T07:36:39.461Z,15.60
2019-06-07T07:39:08.450Z,15.50
2019-06-07T07:41:37.709Z,15.50
2019-06-07T07:44:07.907Z,15.60
2019-06-07T07:46:37.903Z,15.70
2019-06-07T07:49:08.329Z,15.70
2019-06-07T07:51:38.469Z,15.80
2019-06-07T07:54:11.094Z,15.80
2019-06-07T07:56:40.287Z,15.80
2019-06-07T07:59:10.966Z,16.00
2019-06-07T08:01:40.194Z,16.20
2019-06-07T08:04:10.478Z,16.40
2019-06-07T08:06:39.629Z,16.60
2019-06-07T08:09:08.797Z,16.60
2019-06-07T08:11:37.954Z,16.60
2019-06-07T08:14:07.150Z,16.60
2019-06-07T08:16:39.413Z,16.60
2019-06-07T08:19:08.546Z,16.80
2019-06-07T08:21:38.719Z,16.80
2019-06-07T08:24:07.989Z,16.70
2019-06-07T08:26:37.178Z,16.90
2019-06-07T08:29:08.994Z,16.90
2019-06-07T08:31:38.181Z,17.00
2019-06-07T08:34:07.389Z,16.90
2019-06-07T08:36:42.364Z,17.00
2019-06-07T08:39:08.440Z,16.90
2019-06-07T08:41:53.430Z,16.80
2019-06-07T08:44:22.731Z,16.70
2019-06-07T08:46:39.849Z,16.80
2019-06-07T08:49:08.970Z,16.90
2019-06-07T08:51:38.138Z,17.10
2019-06-07T08:54:21.709Z,17.20
2019-06-07T08:56:38.190Z,17.20
2019-06-07T08:59:11.549Z,17.00
2019-06-07T09:01:38.298Z,17.00
2019-06-07T09:04:11.020Z,17.00
2019-06-07T09:07:02.407Z,17.00
2019-06-07T09:09:15.028Z,17.10
2019-06-07T09:11:45.773Z,17.10
2019-06-07T09:14:17.730Z,17.10
2019-06-07T09:16:48.125Z,17.20
2019-06-07T09:19:19.710Z,17.20
2019-06-07T09:21:49.995Z,17.30
2019-06-07T09:24:21.201Z,17.30
2019-06-07T09:26:55.873Z,17.30
2019-06-07T09:29:26.357Z,17.10
2019-06-07T09:32:02.594Z,17.10
2019-06-07T09:34:29.478Z,17.20
2019-06-07T09:37:10.905Z,17.30
2019-06-07T09:39:31.750Z,17.20
2019-06-07T09:42:09.439Z,17.30
2019-06-07T09:44:36.264Z,17.30
2019-06-07T09:47:22.291Z,17.30
2019-06-07T09:49:39.967Z,17.30
2019-06-07T09:52:11.098Z,17.20
2019-06-07T09:55:05.817Z,17.20
2019-06-07T09:57:17.152Z,17.20
2019-06-07T09:59:41.989Z,17.30
2019-06-07T10:02:14.958Z,17.30
2019-06-07T10:04:44.137Z,17.30
2019-06-07T10:07:30.796Z,17.30
2019-06-07T10:12:19.868Z,17.20
2019-06-07T10:14:49.034Z,17.20
2019-06-07T10:17:19.770Z,17.20
2019-06-07T10:19:48.953Z,17.10
2019-06-07T10:22:18.306Z,17.10
2019-06-07T10:24:49.229Z,17.20
2019-06-07T10:27:21.501Z,17.20
2019-06-07T10:29:50.669Z,17.30
2019-06-07T10:32:22.886Z,17.30
2019-06-07T10:34:52.320Z,17.30
2019-06-07T10:37:24.235Z,17.50
2019-06-07T10:39:54.713Z,17.60
2019-06-07T10:42:25.562Z,17.50
2019-06-07T10:44:58.161Z,17.70
2019-06-07T10:47:30.455Z,17.80
2019-06-07T10:49:59.641Z,17.80
2019-06-07T10:52:28.814Z,17.80
2019-06-07T10:54:58.053Z,17.80
2019-06-07T10:57:27.293Z,17.70
2019-06-07T10:59:56.458Z,17.80
2019-06-07T11:02:25.615Z,17.60
2019-06-07T11:04:54.785Z,17.50
2019-06-07T11:07:27.770Z,17.50
2019-06-07T11:10:07.073Z,17.50
2019-06-07T11:12:27.789Z,17.50
2019-06-07T11:14:56.943Z,17.50
2019-06-07T11:17:27.555Z,17.60
2019-06-07T11:19:58.485Z,17.70
2019-06-07T11:22:35.729Z,17.60
2019-06-07T11:25:09.064Z,17.60
2019-06-07T11:27:38.105Z,17.50
2019-06-07T11:30:08.379Z,17.60
2019-06-07T11:32:42.545Z,17.60
2019-06-07T11:35:14.945Z,18.00
2019-06-07T11:37:44.460Z,18.00
2019-06-07T11:40:31.929Z,18.20
2019-06-07T11:42:44.525Z,18.10
2019-06-07T11:45:15.440Z,18.00
2019-06-07T11:47:44.533Z,18.10
2019-06-07T11:50:13.853Z,18.20
2019-06-07T11:52:46.093Z,18.30
2019-06-07T11:55:19.091Z,18.30
2019-06-07T11:57:48.541Z,18.30
2019-06-07T12:00:22.344Z,18.30
2019-06-07T12:02:51.507Z,18.40
2019-06-07T12:05:20.693Z,18.60
2019-06-07T12:07:49.861Z,18.50
2019-06-07T12:10:23.435Z,18.30
2019-06-07T12:12:52.597Z,18.30
2019-06-07T12:15:21.777Z,18.30
2019-06-07T12:17:56.213Z,18.30
2019-06-07T12:20:25.397Z,18.30
2019-06-07T12:22:56.254Z,18.30
2019-06-07T12:25:25.421Z,18.40
2019-06-07T12:27:55.838Z,18.30
2019-06-07T12:30:27.902Z,18.50
2019-06-07T12:32:55.782Z,18.60
2019-06-07T12:35:27.462Z,18.60
2019-06-07T12:37:56.674Z,18.50
2019-06-07T12:40:32.031Z,18.40
2019-06-07T12:42:58.912Z,18.30
2019-06-07T12:45:44.592Z,18.30
2019-06-07T12:48:03.287Z,18.20
2019-06-07T12:50:42.767Z,18.20
2019-06-07T12:53:03.749Z,18.10
2019-06-07T12:55:38.921Z,18.00
2019-06-07T12:58:08.097Z,18.10
2019-06-07T13:00:38.365Z,18.20
2019-06-07T13:03:09.733Z,18.20
2019-06-07T13:05:41.633Z,18.10
2019-06-07T13:08:10.794Z,18.00
2019-06-07T13:10:42.065Z,18.10
2019-06-07T13:13:11.235Z,18.10
2019-06-07T13:15:40.393Z,18.20
2019-06-07T13:18:09.489Z,18.40
2019-06-07T13:20:38.685Z,18.20
2019-06-07T13:23:10.515Z,18.20
2019-06-07T13:25:46.328Z,18.30
2019-06-07T13:28:10.529Z,18.50
2019-06-07T13:30:39.677Z,18.50
2019-06-07T13:33:12.861Z,18.60
2019-06-07T13:35:43.213Z,18.90
2019-06-07T13:38:14.445Z,19.10
2019-06-07T13:40:46.688Z,19.20
2019-06-07T13:43:15.883Z,19.20
2019-06-07T13:45:53.816Z,19.30
2019-06-07T13:48:23.386Z,19.30
2019-06-07T13:50:52.792Z,19.50
2019-06-07T13:53:22.714Z,19.50
2019-06-07T13:55:51.997Z,19.50
2019-06-07T13:58:22.551Z,19.60
2019-06-07T14:03:30.467Z,19.60
2019-06-07T14:05:59.037Z,19.50
2019-06-07T14:08:29.720Z,19.40
2019-06-07T14:10:59.180Z,19.50
2019-06-07T14:13:28.381Z,19.40
2019-06-07T14:15:57.469Z,19.40
2019-06-07T14:18:26.577Z,19.50
2019-06-07T14:20:58.820Z,19.50
2019-06-07T14:23:42.424Z,19.60
2019-06-07T14:25:57.368Z,19.60
2019-06-07T14:28:29.803Z,19.60
2019-06-07T14:31:01.822Z,19.70
2019-06-07T14:33:31.862Z,19.80
2019-06-07T14:36:01.461Z,19.90
2019-06-07T14:38:37.210Z,20.00
2019-06-07T14:41:08.838Z,20.00
2019-06-07T14:43:38.035Z,20.10
2019-06-07T14:46:08.506Z,20.20
2019-06-07T14:48:40.068Z,20.40
2019-06-07T14:51:10.441Z,20.40
2019-06-07T14:53:39.621Z,20.40
2019-06-07T14:56:13.957Z,20.50
2019-06-07T14:58:43.587Z,20.60
2019-06-07T15:01:13.172Z,20.30
2019-06-07T15:03:42.329Z,20.30
2019-06-07T15:06:13.259Z,20.30
2019-06-07T15:08:42.529Z,20.40
2019-06-07T15:11:12.753Z,20.40
2019-06-07T15:13:42.010Z,20.50
2019-06-07T15:16:11.582Z,20.60
2019-06-07T15:18:41.798Z,20.80
2019-06-07T15:21:11.063Z,20.70
2019-06-07T15:23:40.654Z,20.80
2019-06-07T15:26:12.858Z,20.80
2019-06-07T15:28:41.793Z,20.90
2019-06-07T15:31:13.045Z,20.90
2019-06-07T15:33:43.810Z,20.90
2019-06-07T15:36:12.902Z,21.00
2019-06-07T15:38:42.090Z,21.10
2019-06-07T15:41:11.265Z,21.10
2019-06-07T15:43:40.539Z,21.30
2019-06-07T15:46:09.713Z,21.30
2019-06-07T15:48:40.074Z,21.20
2019-06-07T15:51:09.490Z,21.10
2019-06-07T15:53:44.027Z,21.00
2019-06-07T15:56:10.641Z,21.00
2019-06-07T15:58:41.674Z,21.00
2019-06-07T16:01:10.845Z,21.10
2019-06-07T16:03:45.202Z,21.00
2019-06-07T16:06:14.373Z,20.80
2019-06-07T16:08:43.541Z,21.00
2019-06-07T16:11:12.633Z,21.20
2019-06-07T16:13:43.118Z,21.00
2019-06-07T16:16:13.983Z,21.00
2019-06-07T16:18:44.297Z,21.20
2019-06-07T16:21:18.377Z,21.30
2019-06-07T16:23:47.334Z,21.10
2019-06-07T16:26:17.195Z,20.80
2019-06-07T16:28:46.374Z,20.80
2019-06-07T16:31:17.349Z,20.70
2019-06-07T16:33:49.425Z,20.80
2019-06-07T16:36:22.453Z,20.80
2019-06-07T16:38:51.927Z,20.60
2019-06-07T16:41:21.109Z,20.80
2019-06-07T16:43:50.344Z,21.00
2019-06-07T16:46:21.137Z,20.80
2019-06-07T16:48:50.297Z,21.00
2019-06-07T16:51:19.536Z,21.20
2019-06-07T16:53:50.311Z,21.40
2019-06-07T16:56:21.477Z,21.50
2019-06-07T16:58:54.193Z,21.40
2019-06-07T17:01:23.704Z,21.40
2019-06-07T17:03:57.581Z,21.20
2019-06-07T17:06:28.683Z,21.10
2019-06-07T17:09:00.606Z,20.90
2019-06-07T17:11:31.139Z,20.70
2019-06-07T17:14:02.794Z,20.60
2019-06-07T17:16:34.083Z,20.30
2019-06-07T17:19:02.805Z,20.10
2019-06-07T17:21:31.982Z,20.00
2019-06-07T17:24:05.146Z,19.90
2019-06-07T17:26:33.929Z,19.50
2019-06-07T17:29:04.472Z,19.40
2019-06-07T17:31:33.951Z,19.20
2019-06-07T17:34:03.114Z,19.00
2019-06-07T17:36:36.136Z,18.90
2019-06-07T17:39:12.032Z,18.60
2019-06-07T17:41:52.363Z,18.50
2019-06-07T17:44:14.422Z,18.40
2019-06-07T17:46:43.546Z,18.40
2019-06-07T17:49:14.081Z,18.40
2019-06-07T17:51:45.965Z,18.50
2019-06-07T17:54:19.586Z,18.60
2019-06-07T17:56:50.540Z,18.60
2019-06-07T17:59:20.117Z,18.70
2019-06-07T18:02:10.225Z,18.70
2019-06-07T18:04:22.632Z,18.30
2019-06-07T18:06:53.628Z,18.20
2019-06-07T18:09:24.248Z,18.10
2019-06-07T18:11:56.586Z,18.00
2019-06-07T18:14:25.810Z,18.00
2019-06-07T18:16:56.264Z,18.10
2019-06-07T18:19:25.437Z,18.10
2019-06-07T18:21:59.006Z,18.20
2019-06-07T18:24:29.287Z,18.20
2019-06-07T18:27:00.506Z,18.20
2019-06-07T18:29:29.750Z,18.20
2019-06-07T18:32:00.382Z,18.20
2019-06-07T18:34:29.941Z,18.10
2019-06-07T18:36:59.350Z,18.20
2019-06-07T18:39:29.882Z,18.10
2019-06-07T18:42:04.758Z,18.20
2019-06-07T18:44:36.898Z,18.20
2019-06-07T18:47:09.361Z,18.00
2019-06-07T18:49:43.218Z,17.80
2019-06-07T18:52:16.107Z,17.80
2019-06-07T18:54:46.682Z,17.80
2019-06-07T18:57:17.749Z,17.90
2019-06-07T18:59:50.180Z,18.00
2019-06-07T19:02:21.621Z,18.00
2019-06-07T19:04:52.191Z,18.00
2019-06-07T19:07:23.465Z,18.00
2019-06-07T19:09:52.890Z,17.90
2019-06-07T19:12:22.069Z,17.90
2019-06-07T19:14:53.837Z,17.80
2019-06-07T19:17:23.050Z,17.80
2019-06-07T19:19:52.204Z,17.90
2019-06-07T19:22:22.956Z,17.80
2019-06-07T19:24:52.190Z,17.90
2019-06-07T19:27:24.246Z,17.90
2019-06-07T19:29:56.860Z,17.90
2019-06-07T19:32:26.346Z,17.80
2019-06-07T19:34:55.509Z,17.60
2019-06-07T19:37:26.733Z,17.60
2019-06-07T19:40:02.562Z,17.60
2019-06-07T19:42:32.805Z,17.50
2019-06-07T19:45:27.005Z,17.50
2019-06-07T19:47:36.437Z,17.50
2019-06-07T19:50:06.844Z,17.40
2019-06-07T19:52:42.478Z,17.40
2019-06-07T19:55:11.613Z,17.20
2019-06-07T19:57:41.980Z,17.20
2019-06-07T20:00:14.643Z,17.20
2019-06-07T20:02:44.270Z,17.10
2019-06-07T20:05:20.058Z,17.10
2019-06-07T20:07:50.603Z,16.90
2019-06-07T20:10:20.113Z,16.80
2019-06-07T20:12:49.388Z,16.70
2019-06-07T20:15:29.201Z,16.60
2019-06-07T20:17:51.682Z,16.60
2019-06-07T20:20:23.815Z,16.40
2019-06-07T20:22:56.506Z,16.30
2019-06-07T20:25:28.261Z,16.20
2019-06-07T20:27:59.649Z,16.20
2019-06-07T20:30:28.187Z,16.20
2019-06-07T20:32:57.737Z,16.10
2019-06-07T20:35:26.936Z,16.00
2019-06-07T20:37:56.804Z,15.90
2019-06-07T20:40:26.042Z,15.80
2019-06-07T20:42:55.221Z,15.70
2019-06-07T20:45:33.695Z,15.70
2019-06-07T20:48:01.965Z,15.60
2019-06-07T20:50:34.565Z,15.50
2019-06-07T20:53:05.032Z,15.50
2019-06-07T20:55:35.570Z,15.50
2019-06-07T20:58:05.504Z,15.40
2019-06-07T21:00:35.933Z,15.30
2019-06-07T21:03:05.461Z,15.30
2019-06-07T21:05:34.647Z,15.30
2019-06-07T21:08:04.789Z,15.30
2019-06-07T21:10:36.813Z,15.30
2019-06-07T21:13:06.031Z,15.20
2019-06-07T21:15:47.853Z,15.10
2019-06-07T21:18:15.036Z,15.10
2019-06-07T21:20:37.632Z,15.00
2019-06-07T21:23:14.066Z,14.90
2019-06-07T21:25:43.167Z,14.80
2019-06-07T21:28:12.333Z,14.80
2019-06-07T21:30:43.656Z,14.80
2019-06-07T21:33:15.324Z,14.70
2019-06-07T21:35:44.509Z,14.70
2019-06-07T21:38:13.662Z,14.70
2019-06-07T21:40:44.117Z,14.70
2019-06-07T21:43:13.337Z,14.70
2019-06-07T21:45:42.533Z,14.70
2019-06-07T21:48:12.721Z,14.70
2019-06-07T21:50:42.599Z,14.70
2019-06-07T21:53:13.026Z,14.70
2019-06-07T21:55:42.602Z,14.70
2019-06-07T21:58:11.753Z,14.70
2019-06-07T22:01:09.999Z,14.80
2019-06-07T22:03:39.943Z,14.70
2019-06-07T22:06:11.617Z,14.70
2019-06-07T22:08:48.374Z,14.70
2019-06-07T22:11:25.244Z,14.80
2019-06-07T22:13:58.499Z,14.80
2019-06-07T22:16:29.642Z,14.70
2019-06-07T22:19:01.974Z,14.60
2019-06-07T22:21:31.180Z,14.50
2019-06-07T22:24:00.468Z,14.50
2019-06-07T22:26:31.266Z,14.40
2019-06-07T22:29:00.422Z,14.30
2019-06-07T22:31:33.013Z,14.30
2019-06-07T22:34:00.427Z,14.20
2019-06-07T22:36:30.968Z,14.20
2019-06-07T22:39:00.468Z,14.20
2019-06-07T22:41:29.558Z,14.10
2019-06-07T22:43:58.874Z,14.10
2019-06-07T22:46:37.243Z,14.10
2019-06-07T22:49:00.220Z,14.10
2019-06-07T22:51:31.825Z,14.00
2019-06-07T22:54:00.918Z,14.00
2019-06-07T22:56:38.207Z,13.90
2019-06-07T22:59:08.063Z,13.90
2019-06-07T23:01:42.861Z,13.90
2019-06-07T23:04:12.512Z,13.80
2019-06-07T23:06:44.541Z,13.80
2019-06-07T23:09:14.901Z,13.70
2019-06-07T23:11:46.813Z,13.60
2019-06-07T23:14:17.424Z,13.60
2019-06-07T23:16:55.308Z,13.50
2019-06-07T23:19:21.357Z,13.50
2019-06-07T23:21:50.444Z,13.40
2019-06-07T23:24:23.437Z,13.40
2019-06-07T23:26:54.023Z,13.30
2019-06-07T23:29:23.337Z,13.30
2019-06-07T23:31:52.473Z,13.20
2019-06-07T23:34:21.626Z,13.20
2019-06-07T23:36:52.162Z,13.20
2019-06-07T23:39:22.485Z,13.10
2019-06-07T23:41:52.380Z,13.20
2019-06-07T23:44:21.562Z,13.20
2019-06-07T23:46:50.742Z,13.20
2019-06-07T23:49:22.416Z,13.20
2019-06-07T23:51:51.785Z,13.20
2019-06-07T23:54:22.135Z,13.10
2019-06-07T23:56:52.496Z,13.10
2019-06-07T23:59:25.118Z,13.00
